createdAt,value
2018-06-16T00:00:57.403Z,5.47
2018-06-16T00:03:30.468Z,5.87
2018-06-16T00:06:03.526Z,5.30
2018-06-16T00:08:36.612Z,5.60
2018-06-16T00:11:09.682Z,5.73
2018-06-16T00:13:42.835Z,6.00
2018-06-16T00:16:15.890Z,5.60
2018-06-16T00:18:48.902Z,5.23
2018-06-16T00:21:21.953Z,5.83
2018-06-16T00:23:54.982Z,6.27
2018-06-16T00:26:27.986Z,6.13
2018-06-16T00:29:00.997Z,6.30
2018-06-16T00:31:34.028Z,5.87
2018-06-16T00:34:07.072Z,5.63
2018-06-16T00:36:40.093Z,5.80
2018-06-16T00:39:13.117Z,6.73
2018-06-16T00:41:46.151Z,6.73
2018-06-16T00:44:19.204Z,6.67
2018-06-16T00:46:52.229Z,6.50
2018-06-16T00:49:25.250Z,6.40
2018-06-16T00:51:58.271Z,6.40
2018-06-16T00:54:31.318Z,6.43
2018-06-16T00:57:15.894Z,6.60
2018-06-16T00:59:48.926Z,6.60
2018-06-16T01:02:21.949Z,6.77
2018-06-16T01:04:54.961Z,7.10
2018-06-16T01:07:27.962Z,6.63
2018-06-16T01:10:01.038Z,5.93
2018-06-16T01:12:34.072Z,6.40
2018-06-16T01:15:07.188Z,7.07
2018-06-16T01:17:40.218Z,6.07
2018-06-16T01:20:13.290Z,6.07
2018-06-16T01:22:46.322Z,5.60
2018-06-16T01:25:19.174Z,6.40
2018-06-16T01:27:52.202Z,6.00
2018-06-16T01:30:25.298Z,6.00
2018-06-16T01:32:58.312Z,5.90
2018-06-16T01:35:31.413Z,7.00
2018-06-16T01:38:04.651Z,6.20
2018-06-16T01:40:37.676Z,6.10
2018-06-16T01:43:10.738Z,6.57
2018-06-16T01:45:43.763Z,7.03
2018-06-16T01:48:16.803Z,6.83
2018-06-16T01:50:49.847Z,7.93
2018-06-16T01:53:22.886Z,7.90
2018-06-16T01:55:55.911Z,6.77
2018-06-16T01:58:28.959Z,7.03
2018-06-16T02:01:01.987Z,6.77
2018-06-16T02:03:35.010Z,6.73
2018-06-16T02:06:08.073Z,6.87
2018-06-16T02:08:41.118Z,7.67
2018-06-16T02:11:14.159Z,7.47
2018-06-16T02:13:47.175Z,6.67
2018-06-16T02:16:20.226Z,8.30
2018-06-16T02:18:53.280Z,7.60
2018-06-16T02:21:26.316Z,7.77
2018-06-16T02:23:59.322Z,7.83
2018-06-16T02:26:32.387Z,7.63
2018-06-16T02:29:05.419Z,8.47
2018-06-16T02:31:38.459Z,8.67
2018-06-16T02:34:11.543Z,8.50
2018-06-16T02:36:44.586Z,8.23
2018-06-16T02:39:17.651Z,9.00
2018-06-16T02:41:50.662Z,8.70
2018-06-16T02:44:25.758Z,8.70
2018-06-16T02:46:58.774Z,8.73
2018-06-16T02:49:31.779Z,8.70
2018-06-16T02:52:04.895Z,8.97
2018-06-16T02:54:38.008Z,9.27
2018-06-16T02:57:11.036Z,8.20
2018-06-16T02:59:44.069Z,7.90
2018-06-16T03:02:17.095Z,8.30
2018-06-16T03:04:50.101Z,8.83
2018-06-16T03:07:23.143Z,8.57
2018-06-16T03:09:56.168Z,8.07
2018-06-16T03:12:29.237Z,8.67
2018-06-16T03:15:02.329Z,8.80
2018-06-16T03:17:35.482Z,7.53
2018-06-16T03:20:08.544Z,7.97
2018-06-16T03:22:41.590Z,7.57
2018-06-16T03:25:14.631Z,8.40
2018-06-16T03:27:47.662Z,8.63
2018-06-16T03:30:20.674Z,8.80
2018-06-16T03:32:53.489Z,9.40
2018-06-16T03:35:26.513Z,8.40
2018-06-16T03:37:59.578Z,8.93
2018-06-16T03:40:32.607Z,9.83
2018-06-16T03:43:05.457Z,8.80
2018-06-16T03:45:38.510Z,10.00
2018-06-16T03:48:11.591Z,9.43
2018-06-16T03:50:44.632Z,9.43
2018-06-16T03:53:22.232Z,8.90
2018-06-16T03:55:55.270Z,9.97
2018-06-16T03:58:28.372Z,9.87
2018-06-16T04:01:01.411Z,9.17
2018-06-16T04:03:34.478Z,9.63
2018-06-16T04:06:07.589Z,9.93
2018-06-16T04:08:40.631Z,10.30
2018-06-16T04:11:13.669Z,9.50
2018-06-16T04:13:46.682Z,10.00
2018-06-16T04:16:19.704Z,10.10
2018-06-16T04:18:52.750Z,10.47
2018-06-16T04:21:25.791Z,11.47
2018-06-16T04:23:58.993Z,11.33
2018-06-16T04:26:32.024Z,9.27
2018-06-16T04:29:05.103Z,9.67
2018-06-16T04:31:38.163Z,10.13
2018-06-16T04:34:11.199Z,10.27
2018-06-16T04:36:44.240Z,10.37
2018-06-16T04:39:17.331Z,10.83
2018-06-16T04:41:50.350Z,11.17
2018-06-16T04:44:23.391Z,10.60
2018-06-16T04:46:56.668Z,10.70
2018-06-16T04:49:29.776Z,10.90
2018-06-16T04:52:02.827Z,10.83
2018-06-16T04:54:35.927Z,11.17
2018-06-16T04:57:08.955Z,10.93
2018-06-16T04:59:41.995Z,11.60
2018-06-16T05:02:19.243Z,11.07
2018-06-16T05:04:52.274Z,11.57
2018-06-16T05:07:25.284Z,11.00
2018-06-16T05:09:58.364Z,11.20
2018-06-16T05:12:31.411Z,11.47
2018-06-16T05:15:05.067Z,11.60
2018-06-16T05:17:38.100Z,11.23
2018-06-16T05:20:11.108Z,12.33
2018-06-16T05:22:44.142Z,11.43
2018-06-16T05:25:17.163Z,11.27
2018-06-16T05:27:50.203Z,11.67
2018-06-16T05:30:23.227Z,10.97
2018-06-16T05:32:56.247Z,11.73
2018-06-16T05:35:29.390Z,11.10
2018-06-16T05:38:02.438Z,11.40
2018-06-16T05:40:35.451Z,11.23
2018-06-16T05:43:08.479Z,10.80
2018-06-16T05:45:41.932Z,10.47
2018-06-16T05:48:14.990Z,10.90
2018-06-16T05:50:48.231Z,10.30
2018-06-16T05:53:21.265Z,11.00
2018-06-16T05:55:54.366Z,11.47
2018-06-16T05:58:27.443Z,10.43
2018-06-16T06:01:00.662Z,10.20
2018-06-16T06:03:33.683Z,11.07
2018-06-16T06:06:06.715Z,10.13
2018-06-16T06:08:39.766Z,11.57
2018-06-16T06:11:12.868Z,9.93
2018-06-16T06:13:45.883Z,10.33
2018-06-16T06:16:18.954Z,9.53
2018-06-16T06:18:52.017Z,9.63
2018-06-16T06:21:25.076Z,9.00
2018-06-16T06:23:58.079Z,9.67
2018-06-16T06:26:31.147Z,11.10
2018-06-16T06:29:04.157Z,9.90
2018-06-16T06:31:37.258Z,9.63
2018-06-16T06:34:10.324Z,9.27
2018-06-16T06:36:43.395Z,9.53
2018-06-16T06:39:16.411Z,9.90
2018-06-16T06:41:49.438Z,9.37
2018-06-16T06:44:22.473Z,9.70
2018-06-16T06:46:55.563Z,10.13
2018-06-16T06:49:28.651Z,9.50
2018-06-16T06:52:01.718Z,9.70
2018-06-16T06:54:34.766Z,9.50
2018-06-16T06:57:07.795Z,9.40
2018-06-16T06:59:40.801Z,8.27
2018-06-16T07:02:13.907Z,8.93
2018-06-16T07:04:46.927Z,8.80
2018-06-16T07:07:20.092Z,9.13
2018-06-16T07:09:54.203Z,8.17
2018-06-16T07:12:27.299Z,8.73
2018-06-16T07:15:00.465Z,8.00
2018-06-16T07:17:33.578Z,8.20
2018-06-16T07:20:06.662Z,7.43
2018-06-16T07:22:39.736Z,7.43
2018-06-16T07:25:12.806Z,7.40
2018-06-16T07:27:45.879Z,7.30
2018-06-16T07:30:19.324Z,7.63
2018-06-16T07:32:52.421Z,7.50
2018-06-16T07:35:25.601Z,8.17
2018-06-16T07:37:58.751Z,8.03
2018-06-16T07:40:31.834Z,7.90
2018-06-16T07:43:04.960Z,8.73
2018-06-16T07:45:38.001Z,8.10
2018-06-16T07:48:11.051Z,8.43
2018-06-16T07:50:44.075Z,10.77
2018-06-16T07:53:17.143Z,7.90
2018-06-16T07:55:50.318Z,7.33
2018-06-16T07:58:23.482Z,7.13
2018-06-16T08:00:56.350Z,7.63
2018-06-16T08:03:29.490Z,7.23
2018-06-16T08:06:02.538Z,7.17
2018-06-16T08:08:35.610Z,7.77
2018-06-16T08:11:08.679Z,7.20
2018-06-16T08:13:41.736Z,7.33
2018-06-16T08:16:14.834Z,6.90
2018-06-16T08:18:47.949Z,7.23
2018-06-16T08:21:20.998Z,7.40
2018-06-16T08:23:53.856Z,7.30
2018-06-16T08:26:26.902Z,7.70
2018-06-16T08:29:00.108Z,7.57
2018-06-16T08:31:33.236Z,7.30
2018-06-16T08:34:06.864Z,7.03
2018-06-16T08:36:40.092Z,6.53
2018-06-16T08:39:13.251Z,6.63
2018-06-16T08:41:46.420Z,6.73
2018-06-16T08:44:19.497Z,7.03
2018-06-16T08:46:52.579Z,7.17
2018-06-16T08:49:25.658Z,7.53
2018-06-16T08:51:58.819Z,7.03
2018-06-16T08:54:31.934Z,7.33
2018-06-16T08:57:05.027Z,6.80
2018-06-16T08:59:38.129Z,6.57
2018-06-16T09:02:11.195Z,7.53
2018-06-16T09:04:44.359Z,6.97
2018-06-16T09:07:17.573Z,7.97
2018-06-16T09:09:50.695Z,7.03
2018-06-16T09:12:24.155Z,6.60
2018-06-16T09:14:57.265Z,6.90
2018-06-16T09:17:30.353Z,6.90
2018-06-16T09:20:03.487Z,6.93
2018-06-16T09:22:36.578Z,6.53
2018-06-16T09:25:09.660Z,6.33
2018-06-16T09:27:42.767Z,6.40
2018-06-16T09:30:15.891Z,5.67
2018-06-16T09:32:49.095Z,5.70
2018-06-16T09:35:22.183Z,5.60
2018-06-16T09:37:55.212Z,5.20
2018-06-16T09:40:28.400Z,5.20
2018-06-16T09:43:01.494Z,6.00
2018-06-16T09:45:34.565Z,5.00
2018-06-16T09:48:07.611Z,5.53
2018-06-16T09:50:40.661Z,5.10
2018-06-16T09:53:13.766Z,5.50
2018-06-16T09:55:46.866Z,5.20
2018-06-16T09:58:19.951Z,4.40
2018-06-16T10:00:53.070Z,4.63
2018-06-16T10:03:26.149Z,5.40
2018-06-16T10:05:59.232Z,4.70
2018-06-16T10:08:32.267Z,4.23
2018-06-16T10:11:05.352Z,4.00
2018-06-16T10:13:38.552Z,3.93
2018-06-16T10:16:11.595Z,3.93
2018-06-16T10:18:44.780Z,3.80
2018-06-16T10:21:17.911Z,3.50
2018-06-16T10:23:50.960Z,3.33
2018-06-16T10:26:23.990Z,3.83
2018-06-16T10:28:57.044Z,3.40
2018-06-16T10:31:30.119Z,3.40
2018-06-16T10:34:03.135Z,3.53
2018-06-16T10:36:36.306Z,4.07
2018-06-16T10:39:09.827Z,3.50
2018-06-16T10:41:42.923Z,3.60
2018-06-16T10:44:15.978Z,3.47
2018-06-16T10:46:49.100Z,3.27
2018-06-16T10:49:22.135Z,3.60
2018-06-16T10:51:55.207Z,3.90
2018-06-16T10:54:28.329Z,3.77
2018-06-16T10:57:01.379Z,3.90
2018-06-16T10:59:34.427Z,3.70
2018-06-16T11:02:07.655Z,3.63
2018-06-16T11:04:40.727Z,3.83
2018-06-16T11:07:14.016Z,3.40
2018-06-16T11:09:47.163Z,3.87
2018-06-16T11:12:20.238Z,3.83
2018-06-16T11:14:53.268Z,3.13
2018-06-16T11:17:26.323Z,3.03
2018-06-16T11:19:59.543Z,3.20
2018-06-16T11:22:32.726Z,3.67
2018-06-16T11:25:06.028Z,3.53
2018-06-16T11:27:39.131Z,3.80
2018-06-16T11:30:12.395Z,4.07
2018-06-16T11:32:45.617Z,3.77
2018-06-16T11:35:18.745Z,4.27
2018-06-16T11:37:51.855Z,3.37
2018-06-16T11:40:24.900Z,3.70
2018-06-16T11:42:57.923Z,3.63
2018-06-16T11:45:30.995Z,3.83
2018-06-16T11:48:04.218Z,4.03
2018-06-16T11:50:37.243Z,3.70
2018-06-16T11:53:10.285Z,3.77
2018-06-16T11:55:43.354Z,3.60
2018-06-16T11:58:16.403Z,3.73
2018-06-16T12:00:49.839Z,3.60
2018-06-16T12:03:22.925Z,3.60
2018-06-16T12:05:55.992Z,3.47
2018-06-16T12:08:29.047Z,3.50
2018-06-16T12:11:02.093Z,3.50
2018-06-16T12:13:35.207Z,3.73
2018-06-16T12:16:08.230Z,3.70
2018-06-16T12:18:41.309Z,3.40
2018-06-16T12:21:14.383Z,3.60
2018-06-16T12:23:47.411Z,3.50
2018-06-16T12:26:20.458Z,3.53
2018-06-16T12:28:53.520Z,3.67
2018-06-16T12:31:26.606Z,3.53
2018-06-16T12:33:59.642Z,3.47
2018-06-16T12:36:32.721Z,3.60
2018-06-16T12:39:07.288Z,3.70
2018-06-16T12:41:40.426Z,3.83
2018-06-16T12:44:13.527Z,3.17
2018-06-16T12:46:46.612Z,3.30
2018-06-16T12:49:19.684Z,3.63
2018-06-16T12:51:52.807Z,3.40
2018-06-16T12:54:25.890Z,3.40
2018-06-16T12:56:58.944Z,3.70
2018-06-16T12:59:35.342Z,3.47
2018-06-16T13:02:08.377Z,3.13
2018-06-16T13:04:41.553Z,3.00
2018-06-16T13:07:14.919Z,2.93
2018-06-16T13:09:47.978Z,2.70
2018-06-16T13:12:21.063Z,3.20
2018-06-16T13:14:54.116Z,2.90
2018-06-16T13:17:27.140Z,3.10
2018-06-16T13:20:00.183Z,3.30
2018-06-16T13:22:33.223Z,2.97
2018-06-16T13:25:06.302Z,3.43
2018-06-16T13:27:39.384Z,3.17
2018-06-16T13:30:12.461Z,3.37
2018-06-16T13:32:46.324Z,3.10
2018-06-16T13:35:19.388Z,3.47
2018-06-16T13:37:52.445Z,2.97
2018-06-16T13:40:25.524Z,3.23
2018-06-16T13:42:58.632Z,3.50
2018-06-16T13:45:31.720Z,3.40
2018-06-16T13:48:04.780Z,2.93
2018-06-16T13:50:37.895Z,3.30
2018-06-16T13:53:10.930Z,3.00
2018-06-16T13:55:43.991Z,3.10
2018-06-16T13:58:17.039Z,3.40
2018-06-16T14:00:50.072Z,2.97
2018-06-16T14:03:23.121Z,3.20
2018-06-16T14:05:56.443Z,3.27
2018-06-16T14:08:29.591Z,3.50
2018-06-16T14:11:02.631Z,2.83
2018-06-16T14:13:35.670Z,3.60
2018-06-16T14:16:08.734Z,3.47
2018-06-16T14:18:41.747Z,3.60
2018-06-16T14:21:14.787Z,2.90
2018-06-16T14:23:47.855Z,3.07
2018-06-16T14:26:20.990Z,3.27
2018-06-16T14:28:54.026Z,3.30
2018-06-16T14:31:27.108Z,3.20
2018-06-16T14:34:00.244Z,3.33
2018-06-16T14:36:33.307Z,3.20
2018-06-16T14:39:07.190Z,3.13
2018-06-16T14:41:40.347Z,3.23
2018-06-16T14:44:13.399Z,3.10
2018-06-16T14:46:46.499Z,3.20
2018-06-16T14:49:19.564Z,3.07
2018-06-16T14:51:52.604Z,3.37
2018-06-16T14:54:25.638Z,3.20
2018-06-16T14:56:58.663Z,3.00
2018-06-16T14:59:31.759Z,3.27
2018-06-16T15:02:04.783Z,3.43
2018-06-16T15:04:37.863Z,3.37
2018-06-16T15:07:10.928Z,3.40
2018-06-16T15:09:43.970Z,3.70
2018-06-16T15:12:17.030Z,3.30
2018-06-16T15:14:50.095Z,3.10
2018-06-16T15:17:23.143Z,3.10
2018-06-16T15:19:56.203Z,3.67
2018-06-16T15:22:29.303Z,3.47
2018-06-16T15:25:02.567Z,3.40
2018-06-16T15:27:35.629Z,3.27
2018-06-16T15:30:08.644Z,3.80
2018-06-16T15:32:41.716Z,4.13
2018-06-16T15:35:14.830Z,4.60
2018-06-16T15:37:47.882Z,3.47
2018-06-16T15:40:20.910Z,4.00
2018-06-16T15:42:53.974Z,3.90
2018-06-16T15:45:26.983Z,3.93
2018-06-16T15:48:00.037Z,4.57
2018-06-16T15:50:33.074Z,4.23
2018-06-16T15:53:06.203Z,3.97
2018-06-16T15:55:39.026Z,4.17
2018-06-16T15:58:12.099Z,4.37
2018-06-16T16:00:45.123Z,4.57
2018-06-16T16:03:18.023Z,4.90
2018-06-16T16:05:51.150Z,4.53
2018-06-16T16:08:24.172Z,5.10
2018-06-16T16:10:57.197Z,5.47
2018-06-16T16:13:30.323Z,5.07
2018-06-16T16:16:03.374Z,5.07
2018-06-16T16:18:36.403Z,4.87
2018-06-16T16:21:09.463Z,5.00
2018-06-16T16:23:42.503Z,5.60
2018-06-16T16:26:15.591Z,5.00
2018-06-16T16:28:48.664Z,4.73
2018-06-16T16:31:21.706Z,4.67
2018-06-16T16:33:55.067Z,5.47
2018-06-16T16:36:28.098Z,5.63
2018-06-16T16:39:02.446Z,5.03
2018-06-16T16:41:35.487Z,4.90
2018-06-16T16:44:08.570Z,4.70
2018-06-16T16:46:41.863Z,4.53
2018-06-16T16:49:14.949Z,4.90
2018-06-16T16:51:48.028Z,4.73
2018-06-16T16:54:21.129Z,5.10
2018-06-16T16:56:54.231Z,5.50
2018-06-16T16:59:27.304Z,5.20
2018-06-16T17:02:00.400Z,9.43
2018-06-16T17:04:33.501Z,9.03
2018-06-16T17:07:06.587Z,5.40
2018-06-16T17:09:39.762Z,4.83
2018-06-16T17:12:12.820Z,4.90
2018-06-16T17:14:45.891Z,5.03
2018-06-16T17:17:18.986Z,5.40
2018-06-16T17:19:52.044Z,5.57
2018-06-16T17:22:25.059Z,4.40
2018-06-16T17:24:58.155Z,4.53
2018-06-16T17:27:31.171Z,5.23
2018-06-16T17:30:04.332Z,4.90
2018-06-16T17:32:37.390Z,5.13
2018-06-16T17:35:10.465Z,5.30
2018-06-16T17:37:43.455Z,5.57
2018-06-16T17:40:16.656Z,5.37
2018-06-16T17:42:49.663Z,5.40
2018-06-16T17:45:22.692Z,5.70
2018-06-16T17:47:55.726Z,5.67
2018-06-16T17:50:28.740Z,5.40
2018-06-16T17:53:01.777Z,5.67
2018-06-16T17:55:34.850Z,5.73
2018-06-16T17:58:07.933Z,5.23
2018-06-16T18:00:40.967Z,5.27
2018-06-16T18:03:13.990Z,5.43
2018-06-16T18:05:47.047Z,5.37
2018-06-16T18:08:20.075Z,4.90
2018-06-16T18:10:53.122Z,5.83
2018-06-16T18:13:25.957Z,5.70
2018-06-16T18:15:59.002Z,5.60
2018-06-16T18:18:32.039Z,5.73
2018-06-16T18:21:05.075Z,5.53
2018-06-16T18:23:38.206Z,5.13
2018-06-16T18:26:11.254Z,5.10
2018-06-16T18:28:44.279Z,5.30
2018-06-16T18:31:17.693Z,5.17
2018-06-16T18:33:50.737Z,5.67
2018-06-16T18:36:23.825Z,5.70
2018-06-16T18:38:56.875Z,5.13
2018-06-16T18:41:29.922Z,5.97
2018-06-16T18:44:03.064Z,6.03
2018-06-16T18:46:36.664Z,6.20
2018-06-16T18:49:09.682Z,5.37
2018-06-16T18:51:43.018Z,5.60
2018-06-16T18:54:16.067Z,6.53
2018-06-16T18:56:49.186Z,5.70
2018-06-16T18:59:22.246Z,5.93
2018-06-16T19:01:55.455Z,6.07
2018-06-16T19:04:28.658Z,6.63
2018-06-16T19:07:01.707Z,6.50
2018-06-16T19:09:34.812Z,6.43
2018-06-16T19:12:07.903Z,7.37
2018-06-16T19:14:40.939Z,7.70
2018-06-16T19:17:15.031Z,6.70
2018-06-16T19:19:48.272Z,6.77
2018-06-16T19:22:21.431Z,7.27
2018-06-16T19:24:54.519Z,6.53
2018-06-16T19:27:27.559Z,6.63
2018-06-16T19:30:00.613Z,6.93
2018-06-16T19:32:33.673Z,6.80
2018-06-16T19:35:06.821Z,6.30
2018-06-16T19:37:39.868Z,6.27
2018-06-16T19:40:12.991Z,6.50
2018-06-16T19:42:46.079Z,7.40
2018-06-16T19:45:19.259Z,7.63
2018-06-16T19:47:52.379Z,7.17
2018-06-16T19:50:25.406Z,7.40
2018-06-16T19:52:58.520Z,7.70
2018-06-16T19:55:31.572Z,8.03
2018-06-16T19:58:04.691Z,7.27
2018-06-16T20:00:37.742Z,8.13
2018-06-16T20:03:10.807Z,8.50
2018-06-16T20:05:43.931Z,8.87
2018-06-16T20:08:16.976Z,7.70
2018-06-16T20:10:50.006Z,7.33
2018-06-16T20:13:23.173Z,7.10
2018-06-16T20:15:56.230Z,8.00
2018-06-16T20:18:29.289Z,7.63
2018-06-16T20:21:02.339Z,8.10
2018-06-16T20:23:35.174Z,8.60
2018-06-16T20:26:08.308Z,8.20
2018-06-16T20:28:41.464Z,8.67
2018-06-16T20:31:14.548Z,8.20
2018-06-16T20:33:47.594Z,8.40
2018-06-16T20:36:20.515Z,9.57
2018-06-16T20:38:53.555Z,9.57
2018-06-16T20:41:27.610Z,9.13
2018-06-16T20:44:00.736Z,10.13
2018-06-16T20:46:33.828Z,10.87
2018-06-16T20:49:06.894Z,10.17
2018-06-16T20:51:39.945Z,9.87
2018-06-16T20:54:13.058Z,9.17
2018-06-16T20:56:46.142Z,9.17
2018-06-16T20:59:19.195Z,9.07
2018-06-16T21:01:52.239Z,9.60
2018-06-16T21:04:25.339Z,8.70
2018-06-16T21:06:58.395Z,8.97
2018-06-16T21:09:31.456Z,8.40
2018-06-16T21:12:04.495Z,8.70
2018-06-16T21:14:37.576Z,8.03
2018-06-16T21:17:10.707Z,9.20
2018-06-16T21:19:43.764Z,8.97
2018-06-16T21:22:16.842Z,8.70
2018-06-16T21:24:49.906Z,9.20
2018-06-16T21:27:22.967Z,8.80
2018-06-16T21:29:56.095Z,10.03
2018-06-16T21:32:29.161Z,10.83
2018-06-16T21:35:02.252Z,10.10
2018-06-16T21:37:35.356Z,12.67
2018-06-16T21:40:08.436Z,10.87
2018-06-16T21:42:41.496Z,10.07
2018-06-16T21:45:14.587Z,10.10
2018-06-16T21:47:47.631Z,10.53
2018-06-16T21:50:20.691Z,10.23
2018-06-16T21:52:53.747Z,9.80
2018-06-16T21:55:26.792Z,9.97
2018-06-16T21:57:59.667Z,10.70
2018-06-16T22:00:35.753Z,10.13
2018-06-16T22:03:08.799Z,9.93
2018-06-16T22:05:41.847Z,9.60
2018-06-16T22:08:25.250Z,9.20
2018-06-16T22:10:58.315Z,9.30
2018-06-16T22:13:32.288Z,9.57
2018-06-16T22:16:05.328Z,9.70
2018-06-16T22:18:38.475Z,9.57
2018-06-16T22:21:11.546Z,9.10
2018-06-16T22:23:44.591Z,9.73
2018-06-16T22:26:17.652Z,9.67
2018-06-16T22:28:50.708Z,9.10
2018-06-16T22:31:23.783Z,9.83
2018-06-16T22:33:56.899Z,10.53
2018-06-16T22:36:29.972Z,10.57
2018-06-16T22:39:03.061Z,10.23
2018-06-16T22:41:36.138Z,10.33
2018-06-16T22:44:09.764Z,10.47
2018-06-16T22:46:42.903Z,10.47
2018-06-16T22:49:15.947Z,10.37
2018-06-16T22:51:49.028Z,10.30
2018-06-16T22:54:22.084Z,9.73
2018-06-16T22:56:55.163Z,10.23
2018-06-16T22:59:28.210Z,9.43
2018-06-16T23:02:01.304Z,10.20
2018-06-16T23:04:34.398Z,9.30
2018-06-16T23:07:07.468Z,9.20
2018-06-16T23:09:40.500Z,10.30
2018-06-16T23:12:13.616Z,10.33
2018-06-16T23:14:46.657Z,9.73
2018-06-16T23:17:19.747Z,10.20
2018-06-16T23:19:52.835Z,10.53
2018-06-16T23:22:25.732Z,10.73
2018-06-16T23:24:58.790Z,11.03
2018-06-16T23:27:31.873Z,10.83
2018-06-16T23:30:05.059Z,10.37
2018-06-16T23:32:38.140Z,10.43
2018-06-16T23:35:11.351Z,11.27
2018-06-16T23:37:44.451Z,10.50
2018-06-16T23:40:17.523Z,11.27
2018-06-16T23:42:50.621Z,10.90
2018-06-16T23:45:23.740Z,11.27
2018-06-16T23:47:56.871Z,10.93
2018-06-16T23:50:29.926Z,11.60
2018-06-16T23:53:02.996Z,11.53
2018-06-16T23:55:36.057Z,10.70
2018-06-16T23:58:09.130Z,11.63
